createdAt,value
2017-10-31T00:00:08.664Z,73.52
2017-10-31T00:00:49.295Z,73.71
2017-10-31T00:01:29.878Z,73.71
2017-10-31T00:02:10.496Z,73.61
2017-10-31T00:02:51.146Z,73.52
2017-10-31T00:03:31.729Z,73.8
2017-10-31T00:04:12.341Z,73.61
2017-10-31T00:04:53.033Z,73.61
2017-10-31T00:05:33.636Z,73.8
2017-10-31T00:06:14.265Z,73.71
2017-10-31T00:06:54.869Z,73.8
2017-10-31T00:07:35.468Z,73.99
2017-10-31T00:08:16.107Z,73.99
2017-10-31T00:08:56.672Z,73.99
2017-10-31T00:09:37.303Z,73.71
2017-10-31T00:10:17.946Z,73.61
2017-10-31T00:10:58.588Z,74.27
2017-10-31T00:11:39.192Z,73.99
2017-10-31T00:12:19.801Z,74.37
2017-10-31T00:13:00.452Z,74.37
2017-10-31T00:13:41.119Z,74.08
2017-10-31T00:14:21.751Z,73.99
2017-10-31T00:15:02.398Z,74.56
2017-10-31T00:15:42.970Z,74.66
2017-10-31T00:16:23.561Z,74.66
2017-10-31T00:17:04.263Z,74.47
2017-10-31T00:17:44.886Z,74.75
2017-10-31T00:18:25.501Z,74.85
2017-10-31T00:19:06.157Z,74.85
2017-10-31T00:19:46.798Z,75.04
2017-10-31T00:20:27.421Z,75.04
2017-10-31T00:21:08.028Z,74.85
2017-10-31T00:21:48.734Z,74.85
2017-10-31T00:22:29.403Z,75.42
2017-10-31T00:23:09.957Z,75.32
2017-10-31T00:23:50.621Z,75.32
2017-10-31T00:24:31.312Z,75.04
2017-10-31T00:25:11.887Z,75.79
2017-10-31T00:25:52.519Z,75.7
2017-10-31T00:26:33.135Z,75.6
2017-10-31T00:27:13.781Z,75.42
2017-10-31T00:27:54.389Z,75.51
2017-10-31T00:28:35.037Z,75.6
2017-10-31T00:29:15.645Z,75.7
2017-10-31T00:29:56.255Z,75.79
2017-10-31T00:30:36.980Z,76.08
2017-10-31T00:31:17.605Z,75.7
2017-10-31T00:31:58.232Z,76.08
2017-10-31T00:32:38.899Z,76.08
2017-10-31T00:33:19.561Z,75.99
2017-10-31T00:34:00.150Z,76.08
2017-10-31T00:34:40.783Z,75.99
2017-10-31T00:35:21.461Z,75.79
2017-10-31T00:36:02.143Z,76.46
2017-10-31T00:36:42.823Z,76.37
2017-10-31T00:37:23.451Z,75.99
2017-10-31T00:38:04.098Z,76.18
2017-10-31T00:38:44.702Z,76.37
2017-10-31T00:39:25.398Z,76.56
2017-10-31T00:40:06.003Z,76.56
2017-10-31T00:40:46.656Z,76.65
2017-10-31T00:41:27.300Z,76.84
2017-10-31T00:42:07.926Z,76.75
2017-10-31T00:42:48.573Z,76.56
2017-10-31T00:43:29.169Z,76.56
2017-10-31T00:44:09.785Z,76.84
2017-10-31T00:44:50.431Z,76.75
2017-10-31T00:45:31.049Z,76.93
2017-10-31T00:46:11.776Z,76.84
2017-10-31T00:46:52.439Z,76.65
2017-10-31T00:47:33.054Z,76.93
2017-10-31T00:48:13.729Z,77.51
2017-10-31T00:48:54.331Z,77.03
2017-10-31T00:49:34.976Z,77.22
2017-10-31T00:50:15.603Z,77.22
2017-10-31T00:50:56.248Z,77.03
2017-10-31T00:51:36.876Z,77.12
2017-10-31T00:52:17.487Z,76.93
2017-10-31T00:52:58.276Z,76.84
2017-10-31T00:53:38.856Z,76.84
2017-10-31T00:54:19.517Z,76.75
2017-10-31T00:55:00.257Z,76.93
2017-10-31T00:55:40.995Z,77.03
2017-10-31T00:56:21.660Z,77.12
2017-10-31T00:57:02.255Z,77.03
2017-10-31T00:57:42.867Z,77.12
2017-10-31T00:58:23.493Z,77.12
2017-10-31T00:59:04.159Z,77.22
2017-10-31T00:59:44.825Z,77.6
2017-10-31T01:00:25.399Z,77.79
2017-10-31T01:01:06.061Z,77.7
2017-10-31T01:01:46.702Z,77.7
2017-10-31T01:02:27.300Z,77.7
2017-10-31T01:03:07.910Z,77.6
2017-10-31T01:03:48.490Z,77.6
2017-10-31T01:04:29.115Z,77.6
2017-10-31T01:05:09.697Z,77.7
2017-10-31T01:05:50.330Z,77.89
2017-10-31T01:06:30.984Z,77.79
2017-10-31T01:07:11.573Z,77.89
2017-10-31T01:07:52.167Z,77.89
2017-10-31T01:08:32.895Z,77.7
2017-10-31T01:09:13.523Z,77.7
2017-10-31T01:09:54.127Z,77.6
2017-10-31T01:10:34.753Z,77.79
2017-10-31T01:11:15.354Z,77.7
2017-10-31T01:11:56.008Z,77.98
2017-10-31T01:12:36.642Z,78.08
2017-10-31T01:13:17.255Z,78.08
2017-10-31T01:13:57.922Z,78.17
2017-10-31T01:14:38.565Z,77.98
2017-10-31T01:15:19.150Z,78.08
2017-10-31T01:15:59.778Z,77.79
2017-10-31T01:16:40.365Z,77.98
2017-10-31T01:17:20.954Z,78.27
2017-10-31T01:18:01.523Z,78.55
2017-10-31T01:18:42.101Z,78.55
2017-10-31T01:19:22.748Z,78.45
2017-10-31T01:20:03.327Z,78.55
2017-10-31T01:20:43.937Z,78.45
2017-10-31T01:21:24.495Z,78.55
2017-10-31T01:22:05.084Z,78.55
2017-10-31T01:22:45.653Z,78.64
2017-10-31T01:23:26.220Z,78.36
2017-10-31T01:24:06.823Z,78.55
2017-10-31T01:24:47.394Z,78.27
2017-10-31T01:25:27.981Z,78.27
2017-10-31T01:26:08.558Z,78.55
2017-10-31T01:26:49.176Z,78.27
2017-10-31T01:27:29.768Z,78.55
2017-10-31T01:28:10.375Z,78.55
2017-10-31T01:28:50.969Z,78.55
2017-10-31T01:29:31.549Z,78.55
2017-10-31T01:30:12.152Z,78.45
2017-10-31T01:30:52.747Z,78.45
2017-10-31T01:31:33.335Z,78.55
2017-10-31T01:32:13.927Z,78.64
2017-10-31T01:32:54.535Z,78.93
2017-10-31T01:33:35.100Z,79.12
2017-10-31T01:34:15.710Z,79.12
2017-10-31T01:34:56.322Z,79.22
2017-10-31T01:35:36.908Z,79.03
2017-10-31T01:36:17.516Z,79.03
2017-10-31T01:36:58.073Z,79.12
2017-10-31T01:37:38.669Z,79.03
2017-10-31T01:38:19.283Z,78.74
2017-10-31T01:38:59.884Z,79.22
2017-10-31T01:39:40.481Z,79.22
2017-10-31T01:40:21.064Z,78.93
2017-10-31T01:41:01.649Z,78.93
2017-10-31T01:41:42.226Z,78.93
2017-10-31T01:42:22.807Z,78.83
2017-10-31T01:43:03.403Z,78.74
2017-10-31T01:43:43.984Z,79.22
2017-10-31T01:44:24.563Z,78.55
2017-10-31T01:45:05.151Z,78.93
2017-10-31T01:45:45.738Z,78.64
2017-10-31T01:46:26.351Z,78.74
2017-10-31T01:47:06.959Z,78.74
2017-10-31T01:47:47.537Z,79.03
2017-10-31T01:48:28.105Z,79.12
2017-10-31T01:49:08.706Z,79.03
2017-10-31T01:49:49.299Z,79.31
2017-10-31T01:50:29.914Z,79.5
2017-10-31T01:51:10.509Z,79.03
2017-10-31T01:51:51.093Z,79.22
2017-10-31T01:52:31.667Z,79.31
2017-10-31T01:53:12.258Z,79.41
2017-10-31T01:53:52.870Z,79.31
2017-10-31T01:54:33.472Z,79.22
2017-10-31T01:55:14.062Z,79.79
2017-10-31T01:55:54.638Z,79.41
2017-10-31T01:56:35.216Z,79.31
2017-10-31T01:57:15.816Z,79.41
2017-10-31T01:57:56.396Z,79.5
2017-10-31T01:58:36.976Z,79.41
2017-10-31T01:59:17.557Z,79.69
2017-10-31T01:59:58.125Z,79.69
2017-10-31T02:00:38.690Z,79.41
2017-10-31T02:01:19.280Z,79.5
2017-10-31T02:01:59.877Z,79.31
2017-10-31T02:02:40.490Z,79.69
2017-10-31T02:03:21.083Z,79.69
2017-10-31T02:04:01.671Z,79.6
2017-10-31T02:04:42.257Z,79.6
2017-10-31T02:05:22.861Z,79.69
2017-10-31T02:06:03.460Z,80.26
2017-10-31T02:06:44.048Z,80.26
2017-10-31T02:07:24.625Z,80.07
2017-10-31T02:08:05.209Z,80.16
2017-10-31T02:08:45.791Z,80.16
2017-10-31T02:09:26.386Z,79.97
2017-10-31T02:10:06.972Z,80.26
2017-10-31T02:10:47.554Z,80.07
2017-10-31T02:11:28.151Z,79.97
2017-10-31T02:12:08.738Z,80.16
2017-10-31T02:12:49.322Z,80.07
2017-10-31T02:13:29.982Z,80.07
2017-10-31T02:14:10.571Z,79.97
2017-10-31T02:14:51.158Z,80.16
2017-10-31T02:15:31.766Z,80.07
2017-10-31T02:16:12.364Z,80.26
2017-10-31T02:16:52.950Z,80.35
2017-10-31T02:17:33.540Z,80.64
2017-10-31T02:18:14.105Z,80.64
2017-10-31T02:18:54.701Z,80.35
2017-10-31T02:19:35.305Z,79.97
2017-10-31T02:20:15.862Z,80.16
2017-10-31T02:20:56.435Z,80.93
2017-10-31T02:21:37.057Z,80.64
2017-10-31T02:22:17.649Z,80.35
2017-10-31T02:22:58.231Z,80.16
2017-10-31T02:23:38.806Z,80.74
2017-10-31T02:24:19.392Z,80.55
2017-10-31T02:24:59.978Z,80.74
2017-10-31T02:25:40.570Z,80.83
2017-10-31T02:26:21.120Z,80.64
2017-10-31T02:27:01.706Z,80.45
2017-10-31T02:27:42.327Z,80.07
2017-10-31T02:28:22.921Z,81.02
2017-10-31T02:29:03.494Z,81.12
2017-10-31T02:29:44.098Z,81.21
2017-10-31T02:30:24.693Z,81.21
2017-10-31T02:31:05.282Z,81.02
2017-10-31T02:31:45.876Z,81.21
2017-10-31T02:32:26.506Z,81.12
2017-10-31T02:33:07.094Z,80.83
2017-10-31T02:33:47.669Z,81.12
2017-10-31T02:34:28.246Z,81.12
2017-10-31T02:35:08.875Z,80.83
2017-10-31T02:35:49.458Z,80.83
2017-10-31T02:36:30.050Z,81.21
2017-10-31T02:37:10.651Z,80.83
2017-10-31T02:37:51.231Z,81.21
2017-10-31T02:38:31.814Z,81.02
2017-10-31T02:39:12.430Z,80.93
2017-10-31T02:39:53.002Z,80.83
2017-10-31T02:40:33.632Z,80.93
2017-10-31T02:41:14.218Z,81.12
2017-10-31T02:41:54.837Z,81.3
2017-10-31T02:42:35.419Z,81.21
2017-10-31T02:43:16.008Z,81.4
2017-10-31T02:43:56.575Z,81.02
2017-10-31T02:44:37.165Z,81.12
2017-10-31T02:45:17.789Z,81.12
2017-10-31T02:45:58.382Z,81.02
2017-10-31T02:46:38.959Z,80.83
2017-10-31T02:47:19.570Z,81.21
2017-10-31T02:48:00.135Z,80.93
2017-10-31T02:48:40.762Z,81.12
2017-10-31T02:49:21.335Z,81.78
2017-10-31T02:50:01.931Z,81.59
2017-10-31T02:50:42.514Z,81.59
2017-10-31T02:51:23.134Z,81.49
2017-10-31T02:52:03.740Z,81.59
2017-10-31T02:52:44.406Z,81.49
2017-10-31T02:53:25.016Z,81.68
2017-10-31T02:54:05.649Z,81.49
2017-10-31T02:54:46.224Z,81.78
2017-10-31T02:55:26.820Z,81.59
2017-10-31T02:56:07.379Z,81.49
2017-10-31T02:56:47.983Z,81.49
2017-10-31T02:57:28.572Z,81.49
2017-10-31T02:58:09.228Z,81.78
2017-10-31T02:58:49.807Z,81.78
2017-10-31T02:59:30.393Z,81.49
2017-10-31T03:00:10.973Z,81.78
2017-10-31T03:00:51.570Z,81.78
2017-10-31T03:01:32.161Z,81.3
2017-10-31T03:02:12.735Z,81.87
2017-10-31T03:02:53.349Z,81.78
2017-10-31T03:03:33.945Z,81.78
2017-10-31T03:04:14.556Z,82.07
2017-10-31T03:04:55.157Z,82.26
2017-10-31T03:05:35.771Z,82.26
2017-10-31T03:06:16.337Z,82.16
2017-10-31T03:06:56.897Z,82.35
2017-10-31T03:07:37.487Z,82.16
2017-10-31T03:08:18.076Z,81.97
2017-10-31T03:08:58.651Z,82.16
2017-10-31T03:09:39.282Z,82.16
2017-10-31T03:10:19.842Z,82.16
2017-10-31T03:11:00.432Z,82.35
2017-10-31T03:11:41.021Z,82.16
2017-10-31T03:12:21.609Z,82.54
2017-10-31T03:13:02.187Z,82.82
2017-10-31T03:13:42.778Z,82.26
2017-10-31T03:14:23.349Z,82.35
2017-10-31T03:15:03.946Z,82.26
2017-10-31T03:15:44.503Z,82.45
2017-10-31T03:16:25.085Z,82.26
2017-10-31T03:17:05.677Z,82.64
2017-10-31T03:17:46.250Z,82.35
2017-10-31T03:18:26.852Z,82.92
2017-10-31T03:19:07.458Z,82.45
2017-10-31T03:19:48.024Z,82.35
2017-10-31T03:20:28.607Z,82.64
2017-10-31T03:21:09.196Z,82.92
2017-10-31T03:21:49.790Z,82.45
2017-10-31T03:22:30.369Z,82.64
2017-10-31T03:23:10.929Z,82.45
2017-10-31T03:23:51.514Z,82.16
2017-10-31T03:24:32.113Z,82.54
2017-10-31T03:25:12.718Z,82.73
2017-10-31T03:25:53.320Z,82.92
2017-10-31T03:26:33.898Z,82.82
2017-10-31T03:27:14.473Z,83.01
2017-10-31T03:27:55.046Z,82.82
2017-10-31T03:28:35.619Z,82.92
2017-10-31T03:29:16.222Z,82.92
2017-10-31T03:29:56.792Z,82.64
2017-10-31T03:30:37.368Z,82.35
2017-10-31T03:31:17.942Z,82.64
2017-10-31T03:31:58.555Z,82.73
2017-10-31T03:32:39.148Z,82.64
2017-10-31T03:33:19.745Z,82.26
2017-10-31T03:34:00.326Z,82.45
2017-10-31T03:34:40.907Z,82.92
2017-10-31T03:35:21.485Z,82.49
2017-10-31T03:36:02.048Z,82.35
2017-10-31T03:36:42.626Z,82.29
2017-10-31T03:37:23.216Z,82.87
2017-10-31T03:38:03.789Z,82.87
2017-10-31T03:38:44.450Z,82.77
2017-10-31T03:39:25.087Z,82.29
2017-10-31T03:40:05.682Z,82.45
2017-10-31T03:40:46.279Z,82.58
2017-10-31T03:41:26.867Z,83.15
2017-10-31T03:42:07.466Z,82.87
2017-10-31T03:42:48.049Z,83.25
2017-10-31T03:43:28.634Z,83.06
2017-10-31T03:44:09.303Z,82.96
2017-10-31T03:44:49.889Z,83.44
2017-10-31T03:45:30.463Z,83.62
2017-10-31T03:46:11.061Z,83.53
2017-10-31T03:46:51.635Z,83.25
2017-10-31T03:47:32.251Z,83.44
2017-10-31T03:48:12.817Z,83.53
2017-10-31T03:48:53.392Z,83.34
2017-10-31T03:49:33.977Z,83.34
2017-10-31T03:50:14.548Z,83.53
2017-10-31T03:50:55.153Z,83.53
2017-10-31T03:51:35.746Z,83.44
2017-10-31T03:52:16.336Z,83.53
2017-10-31T03:52:56.908Z,83.34
2017-10-31T03:53:37.470Z,83.49
2017-10-31T03:54:18.053Z,83.62
2017-10-31T03:54:58.624Z,83.72
2017-10-31T03:55:39.213Z,83.62
2017-10-31T03:56:19.785Z,83.59
2017-10-31T03:57:00.354Z,83.82
2017-10-31T03:57:40.919Z,83.82
2017-10-31T03:58:21.498Z,84.01
2017-10-31T03:59:02.082Z,83.82
2017-10-31T03:59:42.668Z,83.62
2017-10-31T04:00:23.254Z,84.1
2017-10-31T04:01:03.849Z,84.39
2017-10-31T04:01:44.447Z,84.39
2017-10-31T04:02:25.039Z,84.2
2017-10-31T04:03:05.634Z,84.1
2017-10-31T04:03:46.240Z,84.1
2017-10-31T04:04:26.806Z,84.2
2017-10-31T04:05:07.389Z,84.77
2017-10-31T04:05:47.974Z,84.48
2017-10-31T04:06:28.546Z,84.48
2017-10-31T04:07:09.134Z,84.58
2017-10-31T04:07:49.706Z,84.39
2017-10-31T04:08:30.417Z,84.44
2017-10-31T04:09:10.914Z,84.25
2017-10-31T04:09:51.500Z,84.29
2017-10-31T04:10:32.071Z,84.44
2017-10-31T04:11:12.641Z,84.29
2017-10-31T04:11:53.245Z,84.48
2017-10-31T04:12:33.828Z,84.48
2017-10-31T04:13:14.420Z,84.67
2017-10-31T04:13:55.030Z,84.48
2017-10-31T04:14:35.599Z,84.95
2017-10-31T04:15:16.188Z,85.01
2017-10-31T04:15:56.757Z,85.05
2017-10-31T04:16:37.339Z,85.01
2017-10-31T04:17:17.915Z,84.91
2017-10-31T04:17:58.497Z,84.82
2017-10-31T04:18:39.071Z,84.67
2017-10-31T04:19:19.657Z,84.63
2017-10-31T04:20:00.305Z,85.2
2017-10-31T04:20:40.884Z,84.72
2017-10-31T04:21:21.468Z,84.86
2017-10-31T04:22:02.058Z,84.82
2017-10-31T04:22:42.646Z,84.77
2017-10-31T04:23:23.248Z,84.77
2017-10-31T04:24:03.828Z,85.05
2017-10-31T04:24:44.449Z,85.15
2017-10-31T04:25:25.096Z,84.91
2017-10-31T04:26:05.670Z,84.95
2017-10-31T04:26:46.265Z,85.05
2017-10-31T04:27:26.847Z,84.86
2017-10-31T04:28:07.411Z,84.86
2017-10-31T04:28:48.034Z,85.11
2017-10-31T04:29:28.635Z,85.2
2017-10-31T04:30:09.219Z,84.95
2017-10-31T04:30:49.809Z,84.91
2017-10-31T04:31:30.392Z,85.11
2017-10-31T04:32:10.993Z,85.11
2017-10-31T04:32:51.604Z,84.91
2017-10-31T04:33:32.216Z,84.91
2017-10-31T04:34:12.796Z,85.68
2017-10-31T04:34:53.359Z,85.39
2017-10-31T04:35:33.945Z,85.49
2017-10-31T04:36:14.514Z,85.49
2017-10-31T04:36:55.107Z,85.39
2017-10-31T04:37:35.710Z,85.39
2017-10-31T04:38:16.284Z,85.39
2017-10-31T04:38:56.884Z,85.39
2017-10-31T04:39:37.449Z,85.77
2017-10-31T04:40:18.026Z,85.39
2017-10-31T04:40:58.613Z,85.3
2017-10-31T04:41:39.210Z,85.3
2017-10-31T04:42:19.843Z,85.3
2017-10-31T04:43:00.399Z,85.49
2017-10-31T04:43:41.035Z,85.58
2017-10-31T04:44:21.668Z,85.68
2017-10-31T04:45:02.256Z,86.15
2017-10-31T04:45:42.853Z,85.96
2017-10-31T04:46:23.433Z,85.96
2017-10-31T04:47:04.015Z,85.86
2017-10-31T04:47:44.653Z,85.86
2017-10-31T04:48:25.237Z,85.96
2017-10-31T04:49:05.847Z,85.86
2017-10-31T04:49:46.443Z,85.96
2017-10-31T04:50:27.047Z,86.15
2017-10-31T04:51:07.661Z,85.96
2017-10-31T04:51:48.264Z,85.68
2017-10-31T04:52:28.847Z,86.05
2017-10-31T04:53:09.470Z,86.15
2017-10-31T04:53:50.064Z,86.05
2017-10-31T04:54:30.643Z,85.96
2017-10-31T04:55:11.221Z,86.43
2017-10-31T04:55:51.832Z,86.63
2017-10-31T04:56:32.421Z,86.43
2017-10-31T04:57:13.012Z,86.63
2017-10-31T04:57:53.591Z,86.72
2017-10-31T04:58:34.178Z,86.43
2017-10-31T04:59:14.742Z,86.53
2017-10-31T04:59:55.317Z,86.63
2017-10-31T05:00:35.931Z,86.53
2017-10-31T05:01:16.530Z,86.47
2017-10-31T05:01:57.137Z,86.43
2017-10-31T05:02:37.726Z,86.57
2017-10-31T05:03:18.288Z,86.34
2017-10-31T05:03:58.860Z,86.29
2017-10-31T05:04:39.439Z,86.57
2017-10-31T05:05:20.027Z,86.29
2017-10-31T05:06:00.603Z,86.38
2017-10-31T05:06:41.177Z,86.38
2017-10-31T05:07:21.766Z,86.29
2017-10-31T05:08:02.317Z,86.38
2017-10-31T05:08:42.887Z,86.38
2017-10-31T05:09:23.529Z,86.29
2017-10-31T05:10:04.115Z,86.19
2017-10-31T05:10:44.721Z,86.57
2017-10-31T05:11:25.376Z,86.95
2017-10-31T05:12:05.958Z,86.67
2017-10-31T05:12:46.547Z,86.47
2017-10-31T05:13:27.151Z,86.76
2017-10-31T05:14:07.731Z,86.76
2017-10-31T05:14:48.307Z,86.91
2017-10-31T05:15:28.886Z,86.86
2017-10-31T05:16:09.475Z,87.05
2017-10-31T05:16:50.066Z,86.57
2017-10-31T05:17:30.678Z,86.95
2017-10-31T05:18:11.269Z,86.86
2017-10-31T05:18:51.880Z,86.57
2017-10-31T05:19:32.499Z,86.95
2017-10-31T05:20:13.079Z,86.86
2017-10-31T05:20:53.637Z,86.76
2017-10-31T05:21:34.255Z,87.52
2017-10-31T05:22:14.840Z,87.14
2017-10-31T05:22:55.472Z,87.34
2017-10-31T05:23:36.042Z,87.05
2017-10-31T05:24:16.633Z,87.14
2017-10-31T05:24:57.208Z,86.86
2017-10-31T05:25:37.801Z,87.24
2017-10-31T05:26:18.421Z,86.67
2017-10-31T05:26:59.002Z,86.95
2017-10-31T05:27:39.639Z,87.34
2017-10-31T05:28:20.188Z,87.14
2017-10-31T05:29:00.900Z,87.05
2017-10-31T05:29:41.562Z,87.14
2017-10-31T05:30:22.183Z,86.95
2017-10-31T05:31:02.761Z,87.34
2017-10-31T05:31:43.335Z,86.86
2017-10-31T05:32:23.912Z,87.14
2017-10-31T05:33:04.512Z,87.14
2017-10-31T05:33:45.084Z,87.34
2017-10-31T05:34:25.662Z,86.95
2017-10-31T05:35:06.251Z,87.14
2017-10-31T05:35:46.833Z,87.14
2017-10-31T05:36:27.449Z,87.24
2017-10-31T05:37:08.021Z,87.34
2017-10-31T05:37:48.629Z,87.34
2017-10-31T05:38:29.206Z,87.05
2017-10-31T05:39:09.790Z,87.14
2017-10-31T05:39:50.379Z,87.14
2017-10-31T05:40:30.986Z,87.14
2017-10-31T05:41:11.582Z,87.34
2017-10-31T05:41:52.240Z,87.05
2017-10-31T05:42:32.835Z,87.14
2017-10-31T05:43:13.431Z,87.14
2017-10-31T05:43:54.018Z,87.24
2017-10-31T05:44:34.644Z,87.34
2017-10-31T05:45:15.205Z,87.14
2017-10-31T05:45:55.797Z,87.43
2017-10-31T05:46:36.364Z,87.14
2017-10-31T05:47:16.943Z,87.24
2017-10-31T05:47:57.559Z,87.14
2017-10-31T05:48:38.107Z,87.14
2017-10-31T05:49:18.710Z,87.05
2017-10-31T05:49:59.295Z,87.34
2017-10-31T05:50:39.887Z,87.24
2017-10-31T05:51:20.461Z,87.34
2017-10-31T05:52:01.116Z,87.24
2017-10-31T05:52:41.711Z,87.62
2017-10-31T05:53:22.293Z,87.71
2017-10-31T05:54:02.861Z,87.71
2017-10-31T05:54:43.601Z,87.62
2017-10-31T05:55:24.188Z,87.71
2017-10-31T05:56:04.782Z,87.81
2017-10-31T05:56:45.380Z,87.43
2017-10-31T05:57:25.922Z,87.43
2017-10-31T05:58:06.526Z,87.71
2017-10-31T05:58:47.230Z,87.43
2017-10-31T05:59:27.838Z,87.52
2017-10-31T06:00:08.451Z,87.71
2017-10-31T06:00:49.083Z,87.62
2017-10-31T06:01:29.651Z,87.43
2017-10-31T06:02:10.235Z,87.43
2017-10-31T06:02:50.807Z,87.43
2017-10-31T06:03:31.390Z,87.62
2017-10-31T06:04:11.965Z,87.81
2017-10-31T06:04:52.617Z,87.71
2017-10-31T06:05:33.236Z,87.43
2017-10-31T06:06:13.812Z,87.71
2017-10-31T06:06:54.469Z,87.81
2017-10-31T06:07:35.033Z,87.43
2017-10-31T06:08:15.649Z,87.81
2017-10-31T06:08:56.233Z,87.52
2017-10-31T06:09:36.821Z,87.52
2017-10-31T06:10:17.436Z,87.52
2017-10-31T06:10:58.021Z,87.81
2017-10-31T06:11:38.642Z,87.71
2017-10-31T06:12:19.225Z,87.43
2017-10-31T06:12:59.859Z,87.52
2017-10-31T06:13:40.422Z,87.52
2017-10-31T06:14:21.000Z,87.71
2017-10-31T06:15:01.636Z,87.81
2017-10-31T06:15:42.235Z,87.81
2017-10-31T06:16:22.826Z,87.34
2017-10-31T06:17:03.387Z,87.62
2017-10-31T06:17:43.998Z,87.81
2017-10-31T06:18:24.589Z,87.71
2017-10-31T06:19:05.194Z,87.62
2017-10-31T06:19:45.821Z,87.62
2017-10-31T06:20:26.447Z,87.62
2017-10-31T06:21:07.059Z,87.24
2017-10-31T06:21:47.639Z,87.62
2017-10-31T06:22:28.272Z,87.71
2017-10-31T06:23:08.949Z,87.71
2017-10-31T06:23:49.512Z,87.81
2017-10-31T06:24:30.093Z,87.14
2017-10-31T06:25:10.710Z,87.24
2017-10-31T06:25:51.283Z,87.24
2017-10-31T06:26:31.898Z,87.71
2017-10-31T06:27:12.454Z,87.43
2017-10-31T06:27:53.031Z,87.52
2017-10-31T06:28:33.614Z,87.62
2017-10-31T06:29:14.202Z,87.62
2017-10-31T06:29:54.851Z,87.71
2017-10-31T06:30:35.391Z,87.43
2017-10-31T06:31:15.981Z,87.71
2017-10-31T06:31:56.551Z,87.24
2017-10-31T06:32:37.142Z,87.81
2017-10-31T06:33:17.783Z,87.43
2017-10-31T06:33:58.402Z,87.71
2017-10-31T06:34:38.994Z,87.24
2017-10-31T06:35:19.579Z,87.24
2017-10-31T06:36:00.164Z,87.14
2017-10-31T06:36:40.737Z,87.34
2017-10-31T06:37:21.344Z,87.43
2017-10-31T06:38:01.920Z,87.62
2017-10-31T06:38:42.545Z,87.62
2017-10-31T06:39:23.127Z,87.43
2017-10-31T06:40:03.826Z,87.43
2017-10-31T06:40:44.335Z,87.43
2017-10-31T06:41:24.949Z,87.43
2017-10-31T06:42:05.593Z,87.43
2017-10-31T06:42:46.187Z,87.62
2017-10-31T06:43:26.737Z,87.52
2017-10-31T06:44:07.324Z,87.71
2017-10-31T06:44:47.920Z,87.34
2017-10-31T06:45:28.558Z,87.52
2017-10-31T06:46:09.151Z,87.81
2017-10-31T06:46:49.728Z,88
2017-10-31T06:47:30.350Z,87.81
2017-10-31T06:48:10.972Z,87.43
2017-10-31T06:48:51.590Z,87.62
2017-10-31T06:49:32.176Z,87.62
2017-10-31T06:50:12.791Z,87.52
2017-10-31T06:50:53.416Z,87.43
2017-10-31T06:51:33.998Z,87.52
2017-10-31T06:52:14.584Z,87.52
2017-10-31T06:52:55.202Z,87.52
2017-10-31T06:53:35.828Z,87.38
2017-10-31T06:54:16.452Z,87.34
2017-10-31T06:54:57.017Z,87.47
2017-10-31T06:55:37.607Z,87.28
2017-10-31T06:56:18.210Z,87.38
2017-10-31T06:56:58.794Z,87.66
2017-10-31T06:57:39.399Z,87.38
2017-10-31T06:58:19.981Z,87.66
2017-10-31T06:59:00.579Z,87.76
2017-10-31T06:59:41.186Z,87.47
2017-10-31T07:00:21.893Z,87.38
2017-10-31T07:01:02.517Z,87.24
2017-10-31T07:01:43.125Z,87.66
2017-10-31T07:02:23.716Z,87.47
2017-10-31T07:03:04.361Z,87.47
2017-10-31T07:03:44.976Z,87.38
2017-10-31T07:04:25.589Z,87.19
2017-10-31T07:05:06.184Z,87.09
2017-10-31T07:05:46.835Z,87.19
2017-10-31T07:06:27.421Z,87.19
2017-10-31T07:07:08.006Z,87.19
2017-10-31T07:07:48.599Z,87.38
2017-10-31T07:08:29.188Z,87.28
2017-10-31T07:09:09.786Z,87.19
2017-10-31T07:09:50.368Z,87.28
2017-10-31T07:10:30.981Z,87.38
2017-10-31T07:11:11.627Z,87.19
2017-10-31T07:11:52.183Z,87.19
2017-10-31T07:12:32.760Z,87.47
2017-10-31T07:13:13.360Z,87.28
2017-10-31T07:13:54.197Z,87.19
2017-10-31T07:14:35.282Z,87.19
2017-10-31T07:15:15.562Z,87.38
2017-10-31T07:15:56.235Z,87.76
2017-10-31T07:16:36.778Z,87.66
2017-10-31T07:17:18.135Z,87.76
2017-10-31T07:17:58.860Z,87.76
2017-10-31T07:18:39.437Z,87.57
2017-10-31T07:19:20.209Z,87.47
2017-10-31T07:20:00.806Z,87.19
2017-10-31T07:20:41.444Z,87.47
2017-10-31T07:21:22.427Z,87.19
2017-10-31T07:22:02.849Z,86.99
2017-10-31T07:22:43.412Z,87.28
2017-10-31T07:23:23.992Z,87.19
2017-10-31T07:24:04.661Z,87.28
2017-10-31T07:24:45.461Z,87.28
2017-10-31T07:25:26.158Z,86.8
2017-10-31T07:26:06.956Z,87.28
2017-10-31T07:26:48.001Z,87.09
2017-10-31T07:27:29.743Z,87.38
2017-10-31T07:28:11.254Z,87.09
2017-10-31T07:28:52.133Z,86.71
2017-10-31T07:29:32.828Z,87.47
2017-10-31T07:30:13.411Z,86.99
2017-10-31T07:30:54.008Z,86.52
2017-10-31T07:31:34.671Z,86.99
2017-10-31T07:32:15.434Z,87.28
2017-10-31T07:32:56.025Z,87.28
2017-10-31T07:33:36.613Z,87.47
2017-10-31T07:34:17.226Z,86.8
2017-10-31T07:34:58.138Z,86.8
2017-10-31T07:35:38.795Z,87.09
2017-10-31T07:36:19.559Z,87.19
2017-10-31T07:37:00.196Z,87.19
2017-10-31T07:37:40.813Z,87.09
2017-10-31T07:38:22.232Z,87.09
2017-10-31T07:39:03.047Z,87.19
2017-10-31T07:39:43.712Z,87.09
2017-10-31T07:40:24.310Z,87.57
2017-10-31T07:41:05.227Z,87.38
2017-10-31T07:41:46.007Z,87.19
2017-10-31T07:42:26.549Z,86.99
2017-10-31T07:43:07.159Z,87.09
2017-10-31T07:43:47.957Z,86.8
2017-10-31T07:44:28.658Z,86.71
2017-10-31T07:45:09.318Z,86.99
2017-10-31T07:45:49.924Z,87.28
2017-10-31T07:46:31.244Z,87.28
2017-10-31T07:47:11.691Z,87.38
2017-10-31T07:47:52.358Z,87.09
2017-10-31T07:48:33.372Z,87.09
2017-10-31T07:49:13.854Z,87.09
2017-10-31T07:49:54.455Z,86.99
2017-10-31T07:50:35.520Z,87.28
2017-10-31T07:51:17.028Z,87.09
2017-10-31T07:51:57.713Z,87.09
2017-10-31T07:52:38.242Z,87.09
2017-10-31T07:53:19.004Z,87.47
2017-10-31T07:53:59.556Z,87.19
2017-10-31T07:54:40.320Z,86.99
2017-10-31T07:55:20.848Z,87.09
2017-10-31T07:56:01.468Z,87.47
2017-10-31T07:56:42.069Z,87.28
2017-10-31T07:57:22.665Z,86.8
2017-10-31T07:58:03.366Z,87.09
2017-10-31T07:58:43.921Z,87.09
2017-10-31T07:59:24.531Z,86.8
2017-10-31T08:00:05.114Z,87.09
2017-10-31T08:00:45.772Z,86.99
2017-10-31T08:01:26.539Z,87.28
2017-10-31T08:02:07.206Z,87.09
2017-10-31T08:02:47.855Z,87.19
2017-10-31T08:03:28.511Z,86.99
2017-10-31T08:04:09.268Z,87.09
2017-10-31T08:04:49.962Z,87.19
2017-10-31T08:05:30.540Z,87.09
2017-10-31T08:06:11.194Z,87.28
2017-10-31T08:06:52.032Z,87.19
2017-10-31T08:07:32.707Z,86.99
2017-10-31T08:08:13.317Z,86.99
2017-10-31T08:08:53.992Z,86.99
2017-10-31T08:09:34.711Z,86.43
2017-10-31T08:10:15.370Z,86.8
2017-10-31T08:10:55.988Z,87.09
2017-10-31T08:11:36.648Z,86.9
2017-10-31T08:12:17.394Z,86.71
2017-10-31T08:12:58.017Z,87.09
2017-10-31T08:13:38.673Z,86.8
2017-10-31T08:14:19.266Z,86.71
2017-10-31T08:14:59.876Z,86.9
2017-10-31T08:15:40.457Z,86.61
2017-10-31T08:16:21.084Z,86.99
2017-10-31T08:17:01.707Z,86.99
2017-10-31T08:17:42.356Z,86.99
2017-10-31T08:18:22.970Z,87.19
2017-10-31T08:19:03.584Z,87.28
2017-10-31T08:19:44.221Z,86.99
2017-10-31T08:20:24.838Z,86.99
2017-10-31T08:21:05.465Z,86.99
2017-10-31T08:21:46.075Z,86.99
2017-10-31T08:22:26.693Z,87.28
2017-10-31T08:23:07.263Z,86.99
2017-10-31T08:23:47.851Z,86.8
2017-10-31T08:24:28.456Z,86.71
2017-10-31T08:25:09.007Z,86.43
2017-10-31T08:25:49.599Z,86.33
2017-10-31T08:26:30.168Z,86.52
2017-10-31T08:27:10.753Z,86.71
2017-10-31T08:27:51.331Z,86.52
2017-10-31T08:28:31.973Z,86.99
2017-10-31T08:29:12.559Z,86.71
2017-10-31T08:29:53.186Z,86.43
2017-10-31T08:30:33.768Z,86.43
2017-10-31T08:31:14.338Z,86.24
2017-10-31T08:31:54.929Z,86.61
2017-10-31T08:32:35.505Z,87.09
2017-10-31T08:33:16.093Z,87.19
2017-10-31T08:33:56.757Z,86.99
2017-10-31T08:34:37.328Z,86.8
2017-10-31T08:35:17.921Z,86.52
2017-10-31T08:35:58.527Z,86.43
2017-10-31T08:36:39.122Z,86.43
2017-10-31T08:37:19.777Z,86.9
2017-10-31T08:38:00.362Z,87.19
2017-10-31T08:38:41.030Z,87.09
2017-10-31T08:39:21.605Z,86.8
2017-10-31T08:40:02.171Z,86.71
2017-10-31T08:40:42.767Z,86.99
2017-10-31T08:41:23.369Z,86.9
2017-10-31T08:42:03.941Z,86.61
2017-10-31T08:42:44.525Z,86.99
2017-10-31T08:43:25.117Z,86.71
2017-10-31T08:44:05.735Z,86.71